Time;durP1;ratioP1;P1;durP2;ratioP2;P2;SDS_P1;SDS_P2;PMS_P1;PMS_P2;Temp;Humidity;BMP_temperature;BMP_pressure;BME280_temperature;BME280_humidity;BME280_pressure;Samples;Min_cycle;Max_cycle;Signal;HPM_P1;HPM_P2
2022/06/04 00:01:40;;;;;;;12.07;6.53;;;;;;;20.52;97.29;99931.81;4438163;32;33911;-76
2022/06/04 00:04:28;;;;;;;12.77;6.78;;;;;;;21.47;91.97;99920.59;4438077;32;34523;-75
2022/06/04 00:07:16;;;;;;;9.90;6.78;;;;;;;21.40;92.29;99912.13;4424811;32;34834;-75
2022/06/04 00:16:29;;;;;;;12.40;7.43;;;;;;;20.44;100.00;99905.84;4448616;32;35125;-75
2022/06/04 00:19:17;;;;;;;9.52;6.72;;;;;;;20.40;100.00;99896.59;4448929;32;35463;-75
2022/06/04 00:22:04;;;;;;;8.88;6.07;;;;;;;21.05;97.66;99884.56;4481159;32;33770;-75
2022/06/04 00:24:53;;;;;;;11.27;6.57;;;;;;;21.24;93.59;99876.06;4480640;32;34713;-75
2022/06/04 00:27:40;;;;;;;11.98;6.62;;;;;;;20.49;99.47;99874.09;4480959;32;34981;-75
2022/06/04 00:30:27;;;;;;;8.88;6.45;;;;;;;20.33;100.00;99886.16;4481799;32;35539;-74
2022/06/04 00:33:16;;;;;;;8.68;6.25;;;;;;;20.95;96.29;99891.59;4468143;32;33870;-75
2022/06/04 00:36:02;;;;;;;8.60;6.00;;;;;;;21.22;94.61;99894.34;4469022;32;35390;-75
2022/06/04 00:38:49;;;;;;;10.05;6.05;;;;;;;21.84;89.98;99889.19;4469006;32;36164;-75
2022/06/04 00:41:43;;;;;;;10.88;6.10;;;;;;;21.83;89.33;99889.56;4481074;32;34875;-75
2022/06/04 00:44:29;;;;;;;10.98;6.57;;;;;;;21.74;90.77;99893.47;4480766;32;35161;-75
2022/06/04 00:47:26;;;;;;;11.12;6.32;;;;;;;22.05;88.78;99880.25;4480937;32;35759;-75
2022/06/04 00:50:15;;;;;;;10.23;6.65;;;;;;;22.20;88.27;99892.41;4480955;32;36090;-74
2022/06/04 00:53:03;;;;;;;12.40;6.80;;;;;;;22.06;88.83;99881.03;4480803;32;35488;-75
2022/06/04 00:56:17;;;;;;;8.23;6.62;;;;;;;21.87;91.03;99868.12;4468914;32;34150;-74
2022/06/04 00:59:25;;;;;;;11.07;7.80;;;;;;;21.85;91.84;99853.75;4480773;32;34104;-74
2022/06/04 01:02:27;;;;;;;11.00;7.22;;;;;;;21.55;94.98;99852.62;4467948;32;35023;-74
2022/06/04 01:05:29;;;;;;;8.77;6.97;;;;;;;21.59;95.55;99846.28;4457836;32;35409;-74
2022/06/04 01:08:43;;;;;;;10.80;7.57;;;;;;;22.02;92.63;99848.34;4467693;32;34319;-74
2022/06/04 01:12:09;;;;;;;11.88;7.50;;;;;;;20.85;99.17;99830.94;4468779;32;34670;-74
2022/06/04 01:15:07;;;;;;;9.20;6.80;;;;;;;21.50;95.45;99822.28;4480706;32;34487;-74
2022/06/04 01:18:14;;;;;;;10.50;6.68;;;;;;;21.81;93.51;99817.44;4457575;32;35533;-74
2022/06/04 01:21:06;;;;;;;10.57;6.90;;;;;;;22.19;89.83;99813.44;4480078;32;34118;-74
2022/06/04 01:23:52;;;;;;;8.95;6.18;;;;;;;22.00;90.74;99803.31;4468345;32;35534;-74
2022/06/04 01:27:05;;;;;;;8.48;6.30;;;;;;;22.37;87.37;99796.03;4467649;32;34997;-74
2022/06/04 01:29:58;;;;;;;9.02;6.72;;;;;;;22.28;87.72;99795.56;4480756;32;34655;-74
2022/06/04 01:32:50;;;;;;;8.15;6.12;;;;;;;22.33;87.31;99798.81;4468490;32;34198;-74
2022/06/04 01:35:45;;;;;;;9.98;6.82;;;;;;;22.35;87.93;99810.41;4467827;32;35598;-74
2022/06/04 01:38:48;;;;;;;10.27;7.65;;;;;;;22.32;87.86;99811.19;4468459;32;35056;-74
2022/06/04 01:41:50;;;;;;;12.10;7.65;;;;;;;22.12;90.00;99812.56;4457225;32;34649;-75
2022/06/04 01:44:38;;;;;;;12.25;8.68;;;;;;;21.62;92.55;99829.59;4457528;32;34052;-74
2022/06/04 01:47:26;;;;;;;14.20;9.68;;;;;;;20.80;99.85;99837.62;4468304;32;35403;-74
2022/06/04 01:50:17;;;;;;;12.90;8.63;;;;;;;20.02;100.00;99834.34;4468146;32;34966;-74
2022/06/04 01:53:04;;;;;;;12.80;8.18;;;;;;;21.35;98.35;99845.56;4457195;32;35049;-74
2022/06/04 01:55:54;;;;;;;11.70;8.07;;;;;;;21.51;96.91;99851.75;4468225;32;34197;-74
2022/06/04 01:58:46;;;;;;;10.73;8.25;;;;;;;21.56;95.76;99845.06;4457305;32;34670;-75
2022/06/04 02:01:35;;;;;;;13.48;9.32;;;;;;;21.59;95.94;99835.13;4468231;32;34920;-74
2022/06/04 02:04:27;;;;;;;14.75;8.70;;;;;;;21.64;96.00;99826.44;4467815;32;35654;-74
2022/06/04 02:07:31;;;;;;;;;;;;;;;21.33;98.74;99823.63;4468382;32;35059;-75
2022/06/04 02:10:36;;;;;;;12.27;8.77;;;;;;;21.90;95.09;99823.50;4469173;32;34964;-74
2022/06/04 02:13:28;;;;;;;12.80;8.13;;;;;;;21.84;93.44;99825.06;4468750;32;35507;-74
2022/06/04 02:16:28;;;;;;;11.10;8.00;;;;;;;22.20;91.74;99814.28;4467806;32;34679;-74
2022/06/04 02:19:14;;;;;;;12.85;7.72;;;;;;;22.13;91.31;99805.78;4479956;32;33124;-74
2022/06/04 02:22:02;;;;;;;11.60;8.80;;;;;;;22.26;90.42;99807.16;4479756;32;34440;-74
2022/06/04 02:24:49;;;;;;;11.02;8.10;;;;;;;21.41;95.72;99793.13;4467080;32;34543;-74
2022/06/04 02:27:36;;;;;;;10.38;8.02;;;;;;;21.47;95.16;99811.91;4466975;32;34703;-74
2022/06/04 02:30:27;;;;;;;12.25;9.50;;;;;;;21.55;94.61;99813.59;4467430;32;35078;-74
2022/06/04 02:33:22;;;;;;;11.53;9.07;;;;;;;21.09;99.03;99813.00;4467482;32;34094;-74
2022/06/04 02:36:30;;;;;;;11.75;8.40;;;;;;;20.85;100.00;99817.03;4479429;32;34607;-74
2022/06/04 02:39:26;;;;;;;12.93;7.47;;;;;;;21.16;99.88;99818.66;4467328;32;34706;-74
2022/06/04 02:42:42;;;;;;;10.85;8.02;;;;;;;21.65;96.42;99805.72;4456501;32;34210;-74
2022/06/04 02:45:34;;;;;;;14.60;8.35;;;;;;;21.93;93.21;99810.78;4455928;32;34466;-74
2022/06/04 02:48:36;;;;;;;11.40;7.57;;;;;;;22.01;91.27;99807.69;4468742;32;34715;-74
2022/06/04 02:51:26;;;;;;;12.57;8.10;;;;;;;22.02;90.48;99814.84;4469626;32;35527;-74
2022/06/04 02:54:30;;;;;;;11.82;8.10;;;;;;;22.00;91.31;99808.88;4458657;32;33901;-74
2022/06/04 02:57:17;;;;;;;11.70;8.00;;;;;;;21.87;91.93;99810.34;4469625;32;34169;-73
2022/06/04 03:00:08;;;;;;;13.18;8.15;;;;;;;21.92;92.38;99803.63;4481818;32;34912;-73
2022/06/04 03:02:55;;;;;;;9.57;7.10;;;;;;;21.67;93.77;99781.06;4468940;32;34546;-72
2022/06/04 03:06:22;;;;;;;11.73;6.45;;;;;;;21.75;93.57;99774.38;4469738;32;35134;-72
2022/06/04 03:09:15;;;;;;;12.98;8.85;;;;;;;21.63;93.23;99785.78;4468508;32;33486;-72
2022/06/04 03:12:03;;;;;;;12.82;7.25;;;;;;;21.65;93.86;99788.97;4469727;32;34896;-72
2022/06/04 03:14:50;;;;;;;12.20;6.85;;;;;;;21.56;93.86;99787.31;4480650;32;34700;-72
2022/06/04 03:17:37;;;;;;;12.88;7.28;;;;;;;21.48;93.94;99796.75;4469332;32;34105;-72
2022/06/04 03:20:26;;;;;;;12.27;6.55;;;;;;;21.49;95.00;99803.16;4481567;32;35523;-72
2022/06/04 03:23:14;;;;;;;12.07;6.55;;;;;;;21.26;96.65;99800.44;4469505;32;35588;-72
2022/06/04 03:26:02;;;;;;;11.32;6.82;;;;;;;21.50;95.02;99799.97;4469696;32;35446;-72
2022/06/04 03:28:48;;;;;;;13.80;7.40;;;;;;;21.66;93.62;99808.13;4481433;32;34258;-72
2022/06/04 03:31:34;;;;;;;11.32;7.80;;;;;;;21.37;95.69;99804.19;4481606;32;35496;-72
2022/06/04 03:34:21;;;;;;;12.43;7.55;;;;;;;21.11;98.06;99803.06;4468756;32;33827;-72
2022/06/04 03:37:08;;;;;;;13.73;8.18;;;;;;;21.12;97.50;99801.88;4481642;32;33588;-72
2022/06/04 03:39:55;;;;;;;14.20;8.68;;;;;;;21.15;98.67;99799.53;4468277;32;34039;-72
2022/06/04 03:42:43;;;;;;;16.42;10.50;;;;;;;20.97;98.45;99802.87;4480532;32;34626;-72
2022/06/04 03:45:30;;;;;;;16.12;10.68;;;;;;;20.89;99.57;99803.97;4469313;32;34569;-72
2022/06/04 03:48:16;;;;;;;15.95;10.85;;;;;;;20.87;100.00;99784.03;4481337;32;35446;-73
2022/06/04 03:51:03;;;;;;;18.40;11.50;;;;;;;21.06;99.27;99785.88;4480957;32;34797;-72
2022/06/04 03:53:50;;;;;;;15.40;10.70;;;;;;;21.23;98.80;99790.88;4481612;32;34684;-72
2022/06/04 03:56:36;;;;;;;14.82;10.95;;;;;;;21.22;98.64;99788.47;4469181;32;35742;-72
2022/06/04 03:59:23;;;;;;;17.20;10.82;;;;;;;20.76;100.00;99788.66;4458279;32;34838;-72
2022/06/04 04:02:25;;;;;;;14.85;11.12;;;;;;;20.52;100.00;99796.25;4480360;32;34331;-72
2022/06/04 04:05:15;;;;;;;17.27;11.65;;;;;;;20.59;100.00;99790.78;4481258;32;34749;-72
2022/06/04 04:08:05;;;;;;;17.98;11.75;;;;;;;20.14;100.00;99780.50;4469177;32;34593;-72
2022/06/04 04:10:53;;;;;;;16.63;11.57;;;;;;;20.63;100.00;99797.25;4469214;32;34641;-73
2022/06/04 04:13:40;;;;;;;18.35;12.02;;;;;;;20.62;100.00;99801.19;4481340;32;33155;-74
2022/06/04 04:16:29;;;;;;;15.30;11.15;;;;;;;20.69;100.00;99794.94;4480361;32;34247;-74
2022/06/04 04:19:17;;;;;;;17.98;11.55;;;;;;;20.51;100.00;99802.97;4458163;32;34474;-74
2022/06/04 04:22:04;;;;;;;20.37;12.20;;;;;;;20.72;100.00;99799.75;4481259;32;34376;-74
2022/06/04 04:24:54;;;;;;;18.80;11.60;;;;;;;20.55;100.00;99803.87;4481113;32;34246;-75
2022/06/04 04:27:42;;;;;;;14.52;11.23;;;;;;;20.63;100.00;99825.06;4480748;32;34680;-76
2022/06/04 04:30:30;;;;;;;21.33;11.50;;;;;;;19.59;100.00;99822.41;4481122;32;35621;-75
2022/06/04 04:33:17;;;;;;;15.57;11.05;;;;;;;19.17;100.00;99859.25;4458012;32;35074;-76
2022/06/04 04:36:04;;;;;;;22.48;12.75;;;;;;;19.92;100.00;99908.06;4480789;32;34044;-77
2022/06/04 04:38:53;;;;;;;25.98;13.48;;;;;;;20.22;100.00;99876.81;4481125;32;34650;-78
2022/06/04 04:41:40;;;;;;;25.08;12.57;;;;;;;20.40;100.00;99861.22;4468687;32;34705;-79
2022/06/04 04:44:27;;;;;;;17.67;10.00;;;;;;;20.46;100.00;99853.38;4468578;32;34338;-77
2022/06/04 04:47:13;;;;;;;13.77;10.07;;;;;;;;;;4469110;32;34971;-77
2022/06/04 04:50:09;;;;;;;21.62;10.43;;;;;;;20.88;100.00;99853.28;4481089;32;34320;-77
2022/06/04 04:53:01;;;;;;;13.80;8.95;;;;;;;20.96;100.00;99865.31;4469384;32;34540;-76
2022/06/04 04:55:49;;;;;;;12.33;9.00;;;;;;;20.91;100.00;99862.88;4480732;32;34583;-76
2022/06/04 04:58:37;;;;;;;11.50;8.63;;;;;;;20.78;100.00;99847.56;4480922;32;34864;-76
2022/06/04 05:01:27;;;;;;;13.52;7.93;;;;;;;20.99;100.00;99853.44;4480817;32;34637;-76
2022/06/04 05:04:15;;;;;;;13.43;8.13;;;;;;;21.18;98.29;99854.50;4458029;32;34984;-75
2022/06/04 05:07:01;;;;;;;13.93;8.23;;;;;;;21.00;98.69;99852.25;4468771;32;34710;-76
2022/06/04 05:09:48;;;;;;;10.52;7.57;;;;;;;21.36;95.74;99847.16;4479980;32;35035;-75
2022/06/04 05:12:35;;;;;;;13.05;7.55;;;;;;;21.43;95.42;99844.50;4480800;32;34690;-75
2022/06/04 05:15:23;;;;;;;13.75;7.40;;;;;;;21.27;97.09;99835.50;4468817;32;34939;-76
2022/06/04 05:18:12;;;;;;;13.88;7.07;;;;;;;20.87;98.42;99829.41;4468846;32;35427;-75
2022/06/04 05:21:19;;;;;;;12.55;7.70;;;;;;;20.79;100.00;99838.81;4467861;32;35057;-74
2022/06/04 05:27:06;;;;;;;12.48;7.70;;;;;;;20.61;100.00;99858.03;4463849;32;35009;-74
2022/06/04 05:30:00;;;;;;;10.70;6.93;;;;;;;20.92;100.00;99867.28;4462421;32;34212;-74
2022/06/04 05:32:51;;;;;;;12.65;6.75;;;;;;;21.19;95.50;99867.25;4460762;32;34133;-74
2022/06/04 05:35:41;;;;;;;13.07;6.77;;;;;;;20.94;96.54;99855.75;4479157;32;35597;-74
2022/06/04 05:38:28;;;;;;;10.82;7.03;;;;;;;20.67;97.95;99848.19;4464475;32;34929;-74
2022/06/04 05:41:16;;;;;;;10.93;6.68;;;;;;;20.56;100.00;99846.44;4464666;32;35504;-74
2022/06/04 05:44:04;;;;;;;11.75;6.75;;;;;;;20.44;100.00;99844.62;4453080;32;35017;-74
2022/06/04 05:46:54;;;;;;;9.27;5.78;;;;;;;20.25;100.00;99836.34;4463540;32;35459;-74
2022/06/04 05:49:41;;;;;;;9.90;5.95;;;;;;;20.51;100.00;99844.72;4464258;32;35941;-74
2022/06/04 05:52:29;;;;;;;10.52;6.25;;;;;;;20.59;99.17;99852.03;4464285;32;34505;-74
2022/06/04 05:55:26;;;;;;;9.30;5.57;;;;;;;20.13;100.00;99840.91;4462983;32;35276;-74
2022/06/04 05:58:13;;;;;;;9.15;5.95;;;;;;;20.26;100.00;99849.06;4464218;32;36324;-74
2022/06/04 06:01:01;;;;;;;9.77;6.18;;;;;;;20.42;100.00;99838.63;4462892;32;35967;-74
2022/06/04 06:03:49;;;;;;;12.63;6.43;;;;;;;20.47;100.00;99843.88;4462923;32;34269;-73
2022/06/04 06:06:40;;;;;;;10.45;5.55;;;;;;;20.45;99.98;99840.66;4464103;32;34250;-73
2022/06/04 06:09:28;;;;;;;9.50;5.68;;;;;;;20.62;99.18;99840.16;4462880;32;34592;-73
2022/06/04 06:12:16;;;;;;;10.02;6.97;;;;;;;20.42;100.00;99831.06;4462053;32;34882;-73
2022/06/04 06:15:10;;;;;;;10.38;6.05;;;;;;;19.97;100.00;99832.66;4463978;32;35044;-73
2022/06/04 06:17:58;;;;;;;8.82;5.95;;;;;;;19.90;100.00;99831.75;4464217;32;33184;-73
2022/06/04 06:21:00;;;;;;;13.30;6.55;;;;;;;19.92;100.00;99837.72;4471675;32;34673;-73
2022/06/04 06:23:48;;;;;;;8.70;5.87;;;;;;;19.70;100.00;99840.13;4473678;32;35853;-73
2022/06/04 06:26:44;;;;;;;10.98;5.97;;;;;;;20.06;100.00;99835.22;4465279;32;35413;-73
2022/06/04 06:29:33;;;;;;;10.32;5.85;;;;;;;19.44;100.00;99837.16;4465059;32;34068;-73
2022/06/04 06:32:20;;;;;;;10.75;6.20;;;;;;;19.34;100.00;99833.00;4465996;32;34729;-73
2022/06/04 06:35:08;;;;;;;9.85;5.65;;;;;;;19.28;100.00;99831.69;4466081;32;34492;-73
2022/06/04 06:37:58;;;;;;;12.63;6.07;;;;;;;19.57;100.00;99830.28;4465038;32;34541;-73
2022/06/04 06:40:48;;;;;;;11.05;5.87;;;;;;;19.55;100.00;99836.22;4465818;32;34130;-73
2022/06/04 06:43:37;;;;;;;12.27;6.85;;;;;;;19.20;100.00;99833.50;4470491;32;34688;-74
2022/06/04 06:46:34;;;;;;;11.68;6.62;;;;;;;19.52;100.00;99845.31;4451284;32;34880;-73
2022/06/04 06:49:24;;;;;;;11.27;6.40;;;;;;;19.80;100.00;99837.91;4464081;32;34733;-73
2022/06/04 06:52:13;;;;;;;12.00;7.00;;;;;;;19.64;100.00;99836.00;4454013;32;35077;-73
2022/06/04 06:55:02;;;;;;;10.15;5.60;;;;;;;19.51;100.00;99828.97;4463657;32;34201;-74
2022/06/04 06:57:52;;;;;;;10.45;6.37;;;;;;;19.61;100.00;99833.97;4464851;32;35895;-73
2022/06/04 07:00:44;;;;;;;8.82;6.10;;;;;;;19.78;100.00;99827.16;4461737;32;34243;-73
2022/06/04 07:03:38;;;;;;;13.07;7.32;;;;;;;19.70;100.00;99829.00;4461785;32;33832;-73
2022/06/04 07:06:38;;;;;;;11.38;7.00;;;;;;;19.53;100.00;99829.44;4464609;32;34617;-74
2022/06/04 07:09:37;;;;;;;13.60;7.40;;;;;;;19.69;100.00;99821.81;4464819;32;34984;-73
2022/06/04 07:12:26;;;;;;;12.23;7.62;;;;;;;19.95;100.00;99820.31;4465795;32;34581;-73
2022/06/04 07:15:12;;;;;;;11.07;7.37;;;;;;;20.05;100.00;99822.47;4453892;32;33894;-73
2022/06/04 07:18:00;;;;;;;13.15;7.15;;;;;;;20.37;100.00;99811.88;4481110;32;33542;-73
2022/06/04 07:20:52;;;;;;;11.12;7.18;;;;;;;20.91;100.00;99823.88;4468708;32;34496;-73
2022/06/04 07:23:40;;;;;;;13.85;7.60;;;;;;;20.31;100.00;99824.50;4466623;32;35114;-73
2022/06/04 07:29:28;;;;;;;18.45;7.30;;;;;;;20.83;100.00;99820.19;4469814;32;34344;-73
2022/06/04 07:32:27;;;;;;;14.00;6.70;;;;;;;20.92;100.00;99808.78;4469710;32;34913;-74
2022/06/04 07:35:14;;;;;;;;;;;;;;;21.32;99.12;99816.47;4481649;32;34355;-73
2022/06/04 07:38:05;;;;;;;;;;;;;;;21.62;98.03;99824.00;4481752;32;34778;-73
2022/06/04 07:40:52;;;;;;;11.35;6.43;;;;;;;21.35;99.78;99814.91;4481276;32;34593;-73
2022/06/04 07:43:39;;;;;;;12.52;6.10;;;;;;;21.77;97.84;99813.81;4469269;32;34730;-73
2022/06/04 07:46:33;;;;;;;11.60;6.87;;;;;;;22.10;94.70;99817.72;4481183;32;35406;-73
2022/06/04 07:52:21;;;;;;;10.00;6.40;;;;;;;21.79;96.11;99826.19;4470195;32;35477;-73
2022/06/04 07:55:16;;;;;;;9.00;5.90;;;;;;;21.80;96.29;99827.00;4470020;32;35016;-74
2022/06/04 07:58:04;;;;;;;10.30;5.37;;;;;;;22.49;91.60;99820.09;4481357;32;34257;-73
2022/06/04 08:00:56;;;;;;;8.15;5.78;;;;;;;22.22;94.23;99825.84;4481227;32;34329;-73
2022/06/04 08:03:46;;;;;;;8.73;6.07;;;;;;;22.43;95.90;99806.47;4468955;32;35527;-73
2022/06/04 08:06:37;;;;;;;11.12;7.15;;;;;;;22.40;95.69;99812.84;4469263;32;34918;-73
2022/06/04 08:09:25;;;;;;;9.38;6.22;;;;;;;22.55;94.67;99807.38;4481338;32;33614;-73
2022/06/04 08:15:14;;;;;;;9.07;7.07;;;;;;;22.99;92.22;99812.84;4480965;32;34636;-73
2022/06/04 08:18:03;;;;;;;9.57;6.65;;;;;;;22.80;93.40;99808.34;4481114;32;35044;-73
2022/06/04 08:21:04;;;;;;;9.00;6.07;;;;;;;23.05;92.31;99807.69;4469499;32;34262;-73
2022/06/04 08:23:52;;;;;;;9.07;5.82;;;;;;;22.83;91.38;99801.16;4469068;32;34700;-73
2022/06/04 08:26:43;;;;;;;9.80;6.72;;;;;;;23.37;87.21;99796.66;4480638;32;34650;-73
2022/06/04 08:29:32;;;;;;;11.12;6.78;;;;;;;23.28;89.80;99799.00;4468681;32;34564;-73
2022/06/04 08:32:21;;;;;;;8.60;6.20;;;;;;;23.06;92.09;99798.13;4469014;32;34276;-73
2022/06/04 08:35:17;;;;;;;8.65;6.12;;;;;;;22.90;91.84;99802.00;4481023;32;34101;-73
2022/06/04 08:38:05;;;;;;;;;;;;;;;23.45;89.16;99809.47;4469315;32;35587;-73
2022/06/04 08:41:03;;;;;;;9.43;6.30;;;;;;;23.57;87.66;99799.94;4480776;32;36185;-73
2022/06/04 08:44:05;;;;;;;8.00;6.37;;;;;;;23.15;89.94;99804.16;4467955;32;34920;-73
2022/06/04 08:47:06;;;;;;;11.18;6.20;;;;;;;23.30;89.05;99811.41;4480900;32;34423;-73
2022/06/04 08:49:57;;;;;;;11.50;6.43;;;;;;;23.50;87.02;99805.47;4480577;32;34678;-73
2022/06/04 08:52:49;;;;;;;10.00;7.20;;;;;;;22.69;94.09;99810.25;4468932;32;35877;-73
2022/06/04 08:59:14;;;;;;;7.82;5.35;;;;;;;21.36;100.00;99810.94;4470781;32;35052;-73
2022/06/04 09:02:14;;;;;;;10.68;5.90;;;;;;;21.78;98.27;99824.59;4480519;32;35604;-73
2022/06/04 09:05:17;;;;;;;10.48;5.97;;;;;;;22.25;95.87;99819.47;4468772;32;34661;-74
2022/06/04 09:08:18;;;;;;;7.07;5.62;;;;;;;22.04;100.00;99808.91;4480538;32;34175;-73
2022/06/04 09:11:11;;;;;;;13.60;5.70;;;;;;;21.72;96.86;99828.13;4468547;32;34036;-74
2022/06/04 09:14:30;;;;;;;8.18;6.07;;;;;;;21.92;100.00;99821.16;4468811;32;34616;-74
2022/06/04 09:17:34;;;;;;;7.70;5.97;;;;;;;21.29;100.00;99825.59;4480384;32;35051;-74
2022/06/04 09:20:40;;;;;;;7.47;5.32;;;;;;;21.66;100.00;99826.81;4468874;32;34203;-74
2022/06/04 09:23:36;;;;;;;8.48;5.70;;;;;;;21.28;100.00;99826.75;4467994;32;33749;-75
2022/06/04 09:26:31;;;;;;;8.27;4.40;;;;;;;21.07;100.00;99829.28;4467740;32;34616;-74
2022/06/04 09:29:42;;;;;;;6.53;4.28;;;;;;;20.67;100.00;99822.34;4466942;32;35517;-74
2022/06/04 09:32:44;;;;;;;4.87;3.03;;;;;;;21.58;100.00;99811.22;4478780;32;33597;-74
2022/06/04 09:35:37;;;;;;;4.47;3.10;;;;;;;21.67;100.00;99814.50;4479773;32;33761;-74
2022/06/04 09:38:31;;;;;;;6.07;3.15;;;;;;;21.77;98.38;99819.38;4480508;31;35173;-74
2022/06/04 09:41:31;;;;;;;5.43;2.75;;;;;;;22.17;98.18;99809.41;4468784;32;36202;-74
2022/06/04 09:44:20;;;;;;;6.00;3.00;;;;;;;21.95;95.80;99812.00;4467296;32;34566;-75
2022/06/04 09:47:34;;;;;;;6.03;2.80;;;;;;;22.72;93.48;99811.47;4468135;32;33923;-75
2022/06/04 09:50:37;;;;;;;4.78;1.90;;;;;;;22.95;89.46;99811.22;4467821;32;34652;-75
2022/06/04 09:53:42;;;;;;;4.32;2.10;;;;;;;22.16;94.40;99813.38;4469319;32;34537;-75
2022/06/04 09:56:37;;;;;;;5.25;1.98;;;;;;;23.18;87.36;99808.16;4469848;32;34619;-75
2022/06/04 09:59:32;;;;;;;5.97;1.70;;;;;;;23.39;83.85;99810.22;4470765;32;34105;-75
2022/06/04 10:02:21;;;;;;;3.75;1.60;;;;;;;22.59;85.03;99808.97;4481517;32;34915;-76
2022/06/04 10:05:19;;;;;;;5.07;1.60;;;;;;;23.04;82.51;99811.69;4470503;32;34572;-76
2022/06/04 10:08:13;;;;;;;5.55;1.42;;;;;;;22.55;82.78;99807.38;4470235;32;35120;-76
2022/06/04 10:11:17;;;;;;;2.37;1.55;;;;;;;22.50;84.26;99810.50;4471371;32;35068;-76
2022/06/04 10:14:10;;;;;;;4.10;1.75;;;;;;;22.50;83.97;99816.09;4471197;32;34824;-76
2022/06/04 10:17:01;;;;;;;5.28;1.90;;;;;;;22.89;80.10;99805.19;4482369;32;33936;-76
2022/06/04 10:19:52;;;;;;;6.32;1.52;;;;;;;23.54;81.35;99817.50;4471240;32;35566;-77
2022/06/04 10:22:49;;;;;;;3.45;1.65;;;;;;;23.49;74.07;99804.69;4482904;32;34189;-78
2022/06/04 10:26:07;;;;;;;2.90;1.52;;;;;;;23.66;76.81;99814.34;4472435;32;33577;-77
2022/06/04 10:29:15;;;;;;;4.55;2.00;;;;;;;22.97;80.27;99820.00;4471499;32;33831;-78
2022/06/04 10:32:31;;;;;;;3.35;1.87;;;;;;;22.87;83.25;99819.53;4482427;32;35590;-77
2022/06/04 10:35:56;;;;;;;5.70;1.80;;;;;;;22.69;80.16;99818.63;4483807;32;34101;-77
2022/06/04 10:38:53;;;;;;;3.17;2.20;;;;;;;22.71;82.65;99821.81;4483700;32;35605;-78
2022/06/04 10:41:44;;;;;;;4.87;2.00;;;;;;;23.20;79.37;99811.37;4481341;32;35900;-77
2022/06/04 10:45:02;;;;;;;;;;;;;;;;;;;;;
2022/06/04 10:48:18;;;;;;;4.82;2.53;;;;;;;22.33;86.79;99818.34;4483850;32;34163;-78
2022/06/04 10:51:28;;;;;;;5.10;2.60;;;;;;;23.25;84.36;99834.16;4484232;32;33409;-77
2022/06/04 10:54:29;;;;;;;3.50;2.12;;;;;;;23.49;81.48;99817.87;4472841;32;35127;-75
2022/06/04 10:57:30;;;;;;;4.12;1.98;;;;;;;23.03;79.87;99821.28;4460451;32;34653;-76
2022/06/04 11:00:20;;;;;;;4.80;2.57;;;;;;;23.19;78.11;99830.12;4482673;32;33646;-77
2022/06/04 11:03:20;;;;;;;8.23;2.80;;;;;;;24.08;78.09;99829.62;4470084;32;35303;-77
2022/06/04 11:06:14;;;;;;;7.82;3.97;;;;;;;23.86;77.97;99840.00;4482409;32;35036;-82
2022/06/04 11:09:18;;;;;;;3.47;2.67;;;;;;;24.50;73.87;99835.66;4457050;32;35110;-81
2022/06/04 11:12:23;;;;;;;3.70;2.70;;;;;;;24.02;74.35;99836.81;4468067;32;35076;-81
2022/06/04 11:15:19;;;;;;;3.65;2.42;;;;;;;23.49;79.87;99848.63;4480400;32;35458;-80
2022/06/04 11:18:12;;;;;;;2.55;2.08;;;;;;;24.32;72.43;99844.06;4468875;32;35009;-81
2022/06/04 11:21:31;;;;;;;3.17;2.58;;;;;;;24.16;73.37;99848.06;4468938;32;34339;-75
2022/06/04 11:24:29;;;;;;;3.53;2.45;;;;;;;23.75;75.54;99844.75;4481899;32;34096;-77
2022/06/04 11:27:25;;;;;;;3.75;2.55;;;;;;;23.67;75.05;99852.28;4469000;32;34530;-75
2022/06/04 11:30:20;;;;;;;2.70;2.00;;;;;;;23.67;76.28;99860.66;4459539;32;36679;-76
2022/06/04 11:33:21;;;;;;;3.70;2.20;;;;;;;23.16;77.83;99852.47;4459348;32;35502;-75
2022/06/04 11:36:40;;;;;;;2.70;2.05;;;;;;;23.57;74.86;99859.47;4470675;32;34086;-75
2022/06/04 11:40:12;;;;;;;2.90;2.00;;;;;;;24.39;69.76;99846.84;4481792;32;34242;-75
2022/06/04 11:43:02;;;;;;;3.80;2.23;;;;;;;24.14;70.80;99850.44;4470272;32;34928;-76
2022/06/04 11:46:11;;;;;;;2.72;1.98;;;;;;;24.46;71.91;99849.69;4469267;32;35223;-77
2022/06/04 11:49:14;;;;;;;3.67;2.40;;;;;;;24.78;70.43;99849.66;4482299;32;34352;-74
2022/06/04 11:52:29;;;;;;;3.28;2.25;;;;;;;23.70;73.38;99854.31;4481559;32;34663;-76
2022/06/04 11:55:40;;;;;;;3.12;2.03;;;;;;;24.08;73.78;99857.63;4481730;32;34915;-77
2022/06/04 11:58:42;;;;;;;3.00;2.12;;;;;;;24.31;68.94;99856.47;4470069;32;34568;-76
2022/06/04 12:01:43;;;;;;;3.92;2.60;;;;;;;24.31;70.19;99860.06;4469489;32;34041;-76
2022/06/04 12:04:54;;;;;;;3.33;2.75;;;;;;;24.35;69.28;99854.44;4471136;32;34291;-76
2022/06/04 12:07:47;;;;;;;3.65;2.60;;;;;;;24.46;70.29;99870.09;4469481;32;34907;-76
2022/06/04 12:10:58;;;;;;;3.92;2.15;;;;;;;24.77;67.64;99870.47;4471319;32;34689;-76
2022/06/04 12:13:50;;;;;;;4.47;2.53;;;;;;;24.65;69.10;99868.09;4352351;32;3763145;-75
2022/06/04 12:16:59;;;;;;;2.67;2.25;;;;;;;24.31;67.78;99871.25;4469190;32;34611;-76
2022/06/04 12:26:51;;;;;;;5.60;2.83;;;;;;;24.53;70.32;99879.69;4472931;32;34198;-78
2022/06/04 12:29:50;;;;;;;4.03;2.45;;;;;;;24.48;71.04;99878.09;4482304;32;34730;-78
2022/06/04 12:32:42;;;;;;;3.87;2.37;;;;;;;23.94;69.96;99874.38;4471397;32;35919;-78
2022/06/04 12:35:34;;;;;;;2.80;2.28;;;;;;;24.45;69.76;99876.09;4459614;32;34662;-77
2022/06/04 12:38:25;;;;;;;3.40;2.37;;;;;;;24.26;67.43;99879.25;4472294;32;33668;-78
2022/06/04 12:41:19;;;;;;;3.20;2.55;;;;;;;25.65;66.64;99867.06;4463296;32;35377;-77
2022/06/04 12:44:21;;;;;;;4.62;2.30;;;;;;;25.93;64.82;99872.56;4471497;32;35875;-77
2022/06/04 12:47:32;;;;;;;4.18;2.40;;;;;;;25.67;64.84;99881.47;4472218;32;34875;-77
2022/06/04 12:50:29;;;;;;;4.62;2.70;;;;;;;26.40;61.13;99863.81;4483033;32;34377;-77
2022/06/04 12:53:21;;;;;;;4.60;2.78;;;;;;;26.68;64.35;99872.03;4472080;32;34737;-77
2022/06/04 12:56:21;;;;;;;4.05;2.22;;;;;;;27.17;62.09;99869.16;4482161;32;34922;-78
2022/06/04 13:03:06;;;;;;;3.30;1.90;;;;;;;26.23;60.79;99862.72;4470846;32;35128;-75
2022/06/04 13:06:04;;;;;;;3.63;2.13;;;;;;;26.59;58.05;99865.31;4469567;32;35776;-76
2022/06/04 13:09:12;;;;;;;;;;;;;;;27.33;56.54;99868.59;4481007;32;35038;-77
2022/06/04 13:12:26;;;;;;;4.00;2.00;;;;;;;25.84;59.17;99877.81;4468119;32;34836;-76
2022/06/04 13:15:31;;;;;;;2.25;1.58;;;;;;;27.07;57.96;99853.19;4480925;32;34205;-77
2022/06/04 13:18:31;;;;;;;6.80;2.03;;;;;;;27.35;57.14;99846.44;4480493;32;34277;-77
2022/06/04 13:21:24;;;;;;;3.62;1.90;;;;;;;26.54;60.29;99860.12;4468948;32;36020;-76
2022/06/04 13:24:21;;;;;;;4.72;2.00;;;;;;;27.37;55.91;99850.44;4453539;32;34662;-77
2022/06/04 13:27:45;;;;;;;5.28;1.98;;;;;;;27.11;56.08;99843.50;4443104;32;34819;-75
2022/06/04 13:30:50;;;;;;;3.67;2.00;;;;;;;26.38;58.60;99846.56;4463983;32;34630;-77
2022/06/04 13:33:37;;;;;;;3.83;1.70;;;;;;;26.58;58.77;99844.84;4445913;32;35901;-76
2022/06/04 13:36:30;;;;;;;2.62;1.67;;;;;;;26.92;57.45;99847.72;4449189;32;35698;-76
2022/06/04 13:39:19;;;;;;;3.27;1.80;;;;;;;27.22;56.01;99834.16;4446509;32;34073;-75
2022/06/04 13:42:18;;;;;;;4.32;2.08;;;;;;;25.92;60.57;99847.69;4453282;32;34727;-76
2022/06/04 13:45:09;;;;;;;3.47;1.87;;;;;;;26.81;60.27;99847.03;4443979;32;35928;-75
2022/06/04 13:48:18;;;;;;;3.35;1.87;;;;;;;27.79;54.69;99837.06;4459919;32;35034;-76
2022/06/04 13:51:19;;;;;;;3.72;1.80;;;;;;;26.59;58.79;99840.81;4442357;32;35041;-76
2022/06/04 13:54:27;;;;;;;4.15;1.80;;;;;;;27.63;55.74;99831.22;4437926;32;34665;-76
2022/06/04 13:57:41;;;;;;;3.47;1.95;;;;;;;27.40;57.02;99829.09;4437634;32;35852;-76
2022/06/04 14:00:32;;;;;;;4.62;2.00;;;;;;;27.56;56.87;99836.97;4446373;32;34712;-76
2022/06/04 14:03:38;;;;;;;5.35;2.87;;;;;;;26.87;56.73;99839.75;4443480;32;34196;-78
2022/06/04 14:06:25;;;;;;;5.12;2.15;;;;;;;27.50;54.51;99835.84;4449106;32;35622;-76
2022/06/04 14:09:23;;;;;;;3.92;2.00;;;;;;;28.33;51.58;99824.19;4464995;32;34680;-78
2022/06/04 14:12:20;;;;;;;2.97;1.83;;;;;;;27.99;51.37;99830.75;4436083;32;34575;-78